createdAt,value
2023-04-27T06:50:05.911Z,98474
2023-04-27T06:55:46.248Z,98473.4
2023-04-27T07:01:25.019Z,98471.3
2023-04-27T07:07:03.210Z,98467.3
2023-04-27T07:12:41.430Z,98452.7
2023-04-27T07:18:18.116Z,98449.1
2023-04-27T07:23:56.683Z,98449.4
2023-04-27T07:29:33.434Z,98452.6
2023-04-27T07:35:11.499Z,98440.5
2023-04-27T07:40:47.013Z,98443
2023-04-27T07:46:24.636Z,98434
2023-04-27T07:52:22.900Z,98420.4
2023-04-27T07:57:57.479Z,98401.1
2023-04-27T08:03:34.324Z,98403.7
2023-04-27T08:09:12.819Z,98404
2023-04-27T08:14:51.324Z,98402.2
2023-04-27T08:20:26.985Z,98393.5
2023-04-27T08:26:02.474Z,98389.1
2023-04-27T08:31:38.857Z,98381.2
2023-04-27T08:37:17.993Z,98380
2023-04-27T08:42:53.752Z,98370.2
2023-04-27T08:48:29.917Z,98371
2023-04-27T08:54:05.963Z,98377.4
2023-04-27T08:59:41.694Z,98371.7
2023-04-27T09:05:19.421Z,98372
2023-04-27T09:10:55.738Z,98368.2
2023-04-27T09:16:32.102Z,98372.8
2023-04-27T09:22:07.917Z,98373.1
2023-04-27T09:27:43.728Z,98377.3
2023-04-27T09:33:19.119Z,98385.1
2023-04-27T09:38:54.602Z,98393.8
2023-04-27T09:44:30.362Z,98392
2023-04-27T09:50:05.815Z,98403.4
2023-04-27T09:55:41.649Z,98408.7
2023-04-27T10:01:17.404Z,98410.4
2023-04-27T10:06:55.073Z,98404.1
2023-04-27T10:12:33.987Z,98398.4
2023-04-27T10:18:11.160Z,98400.2
2023-04-27T10:23:49.347Z,98396.3
2023-04-27T10:29:25.876Z,98407.4
2023-04-27T10:35:01.566Z,98397.9
2023-04-27T10:40:37.838Z,98393.1
2023-04-27T10:46:14.973Z,98392.9
2023-04-27T10:51:51.340Z,98381.1
2023-04-27T10:57:27.364Z,98387.7
2023-04-27T11:03:03.252Z,98377.3
2023-04-27T11:08:39.704Z,98373.1
2023-04-27T11:14:15.946Z,98357.7
2023-04-27T11:19:52.692Z,98359.8
2023-04-27T11:25:27.905Z,98347.4
2023-04-27T11:31:03.051Z,98345.4
2023-04-27T11:36:39.088Z,98343.9
2023-04-27T11:42:14.698Z,98336.7
2023-04-27T11:47:50.212Z,98339.3
2023-04-27T11:53:26.077Z,98337.1
2023-04-27T11:59:01.541Z,98337
2023-04-27T12:04:38.425Z,98329.4
2023-04-27T12:10:16.118Z,98336.6
2023-04-27T12:15:51.456Z,98337.8
2023-04-27T12:21:28.031Z,98338.6
2023-04-27T12:27:05.053Z,98343
2023-04-27T12:32:40.849Z,98346.4
2023-04-27T12:38:17.035Z,98346
2023-04-27T12:43:53.618Z,98345.3
2023-04-27T12:49:31.704Z,98345.2
2023-04-27T12:55:31.975Z,98346.7
2023-04-27T13:01:10.518Z,98352.2
2023-04-27T13:06:48.680Z,98351.2
2023-04-27T13:12:23.900Z,98344.4
2023-04-27T13:18:00.220Z,98346.5
2023-04-27T13:23:37.080Z,98343.7
2023-04-27T13:29:12.817Z,98343.9
2023-04-27T13:34:48.773Z,98343.7
2023-04-27T13:40:25.463Z,98348.7
2023-04-27T13:46:02.134Z,98340.8
2023-04-27T13:51:38.454Z,98334.1
2023-04-27T13:57:14.804Z,98334.7
2023-04-27T14:02:51.107Z,98338.9
2023-04-27T14:08:27.913Z,98333.6
2023-04-27T14:14:03.620Z,98332.7
2023-04-27T14:19:39.545Z,98330.2
2023-04-27T14:25:14.685Z,98329.5
2023-04-27T14:30:51.401Z,98322.6
2023-04-27T14:36:26.873Z,98320.7
2023-04-27T14:42:02.102Z,98325.5
2023-04-27T14:47:38.439Z,98324.1
2023-04-27T14:53:14.203Z,98321.2
2023-04-27T14:58:49.684Z,98326.6
2023-04-27T15:04:26.174Z,98316.5
2023-04-27T15:10:02.852Z,98321.2
2023-04-27T15:15:38.574Z,98323.7
2023-04-27T15:21:14.916Z,98319.3
2023-04-27T15:26:51.606Z,98315.4
2023-04-27T15:32:26.444Z,98319.2
2023-04-27T15:38:01.638Z,98327
2023-04-27T15:43:39.136Z,98317.1
2023-04-27T15:49:15.297Z,98316
2023-04-27T15:54:51.571Z,98315.5
2023-04-27T16:00:27.490Z,98315.6
2023-04-27T16:06:03.196Z,98316.6
2023-04-27T16:11:38.629Z,98319.4
2023-04-27T16:17:13.984Z,98319.2
2023-04-27T16:22:50.244Z,98322.6
2023-04-27T16:28:27.794Z,98319.2
2023-04-27T16:34:03.978Z,98317.3
2023-04-27T16:39:41.659Z,98307.5
2023-04-27T16:45:17.095Z,98308.7
2023-04-27T16:50:56.216Z,98304.1
2023-04-27T16:56:31.288Z,98308.3
2023-04-27T17:02:26.124Z,98312.2
2023-04-27T17:08:06.000Z,98312
2023-04-27T17:13:41.466Z,98314.9
2023-04-27T17:19:18.151Z,98309.2
2023-04-27T17:24:53.682Z,98306.5
2023-04-27T17:30:29.424Z,98310.9
2023-04-27T17:36:04.772Z,98321.7
2023-04-27T17:41:40.004Z,98318.1
2023-04-27T17:47:15.021Z,98320.8
2023-04-27T17:52:51.864Z,98327.2
2023-04-27T17:58:29.008Z,98331.1
2023-04-27T18:04:05.973Z,98335.6
2023-04-27T18:09:42.848Z,98336
2023-04-27T18:15:19.197Z,98338
2023-04-27T18:20:54.792Z,98338.5
2023-04-27T18:26:30.518Z,98340.3
2023-04-27T18:32:07.257Z,98345.7
2023-04-27T18:37:42.917Z,98347.8
2023-04-27T18:43:18.373Z,98351.7
2023-04-27T18:48:54.737Z,98357.1
2023-04-27T18:54:30.019Z,98354.7
2023-04-27T19:00:05.656Z,98358.5
2023-04-27T19:05:41.642Z,98362.5
2023-04-27T19:11:18.270Z,98363.2
2023-04-27T19:16:53.755Z,98372.8
2023-04-27T19:22:29.487Z,98383.1
2023-04-27T19:28:04.997Z,98388.3
2023-04-27T19:33:55.754Z,98390.6
2023-04-27T19:39:40.160Z,98395
2023-04-27T19:45:18.760Z,98402.6
2023-04-27T19:50:54.085Z,98408.8
2023-04-27T19:56:31.188Z,98408
2023-04-27T20:02:08.333Z,98404.5
2023-04-27T20:07:45.448Z,98402.6
2023-04-27T20:13:21.786Z,98412.5
2023-04-27T20:18:57.394Z,98420.2
2023-04-27T20:24:32.709Z,98419.5
2023-04-27T20:30:07.999Z,98424
2023-04-27T20:35:43.484Z,98425.9
2023-04-27T20:41:19.523Z,98423.4
2023-04-27T20:47:02.141Z,98423.1
2023-04-27T20:52:37.220Z,98418.9
2023-04-27T20:58:14.013Z,98416.7
2023-04-27T21:03:52.566Z,98416.5
2023-04-27T21:09:29.397Z,98420.6
2023-04-27T21:15:05.257Z,98422
2023-04-27T21:20:41.012Z,98412.4
2023-04-27T21:26:16.430Z,98410.5
2023-04-27T21:31:52.457Z,98408.8
2023-04-27T21:37:28.030Z,98407
